sensor_id;sensor_type;location;lat;lon;timestamp;P1;durP1;ratioP1;P2;durP2;ratioP2
42124;SDS011;27787;44.594;11.046;2023-07-31T00:00:12;5.18;;;2.47;;
42124;SDS011;27787;44.594;11.046;2023-07-31T00:02:56;4.32;;;2.20;;
42124;SDS011;27787;44.594;11.046;2023-07-31T00:05:40;7.07;;;2.42;;
42124;SDS011;27787;44.594;11.046;2023-07-31T00:08:24;5.65;;;2.15;;
42124;SDS011;27787;44.594;11.046;2023-07-31T00:11:09;4.70;;;2.63;;
42124;SDS011;27787;44.594;11.046;2023-07-31T00:13:53;3.15;;;2.10;;
42124;SDS011;27787;44.594;11.046;2023-07-31T00:16:37;5.70;;;2.33;;
42124;SDS011;27787;44.594;11.046;2023-07-31T00:19:21;6.50;;;2.40;;
42124;SDS011;27787;44.594;11.046;2023-07-31T00:22:05;6.65;;;2.47;;
42124;SDS011;27787;44.594;11.046;2023-07-31T00:24:50;5.72;;;2.28;;
42124;SDS011;27787;44.594;11.046;2023-07-31T00:27:34;4.45;;;2.70;;
42124;SDS011;27787;44.594;11.046;2023-07-31T00:30:18;5.65;;;2.13;;
42124;SDS011;27787;44.594;11.046;2023-07-31T00:33:02;5.22;;;2.47;;
42124;SDS011;27787;44.594;11.046;2023-07-31T00:35:48;4.10;;;2.53;;
42124;SDS011;27787;44.594;11.046;2023-07-31T00:38:32;5.20;;;2.78;;
42124;SDS011;27787;44.594;11.046;2023-07-31T00:41:17;5.03;;;2.63;;
42124;SDS011;27787;44.594;11.046;2023-07-31T00:44:01;5.47;;;2.92;;
42124;SDS011;27787;44.594;11.046;2023-07-31T00:46:46;7.18;;;2.80;;
42124;SDS011;27787;44.594;11.046;2023-07-31T00:49:30;8.43;;;3.00;;
42124;SDS011;27787;44.594;11.046;2023-07-31T00:52:14;6.00;;;2.80;;
42124;SDS011;27787;44.594;11.046;2023-07-31T00:54:58;6.88;;;2.80;;
42124;SDS011;27787;44.594;11.046;2023-07-31T01:00:29;5.50;;;2.60;;
42124;SDS011;27787;44.594;11.046;2023-07-31T01:03:13;9.15;;;2.47;;
42124;SDS011;27787;44.594;11.046;2023-07-31T01:08:57;5.75;;;2.33;;
42124;SDS011;27787;44.594;11.046;2023-07-31T01:11:48;5.63;;;2.30;;
42124;SDS011;27787;44.594;11.046;2023-07-31T01:14:37;4.72;;;2.20;;
42124;SDS011;27787;44.594;11.046;2023-07-31T01:17:21;11.48;;;2.45;;
42124;SDS011;27787;44.594;11.046;2023-07-31T01:20:08;7.57;;;2.80;;
42124;SDS011;27787;44.594;11.046;2023-07-31T01:31:53;5.47;;;2.70;;
42124;SDS011;27787;44.594;11.046;2023-07-31T01:34:40;6.30;;;3.33;;
42124;SDS011;27787;44.594;11.046;2023-07-31T01:37:29;5.63;;;3.05;;
42124;SDS011;27787;44.594;11.046;2023-07-31T01:40:13;3.92;;;2.58;;
42124;SDS011;27787;44.594;11.046;2023-07-31T01:42:58;8.15;;;2.75;;
42124;SDS011;27787;44.594;11.046;2023-07-31T01:45:42;6.78;;;2.78;;
42124;SDS011;27787;44.594;11.046;2023-07-31T01:48:26;3.95;;;2.38;;
42124;SDS011;27787;44.594;11.046;2023-07-31T01:51:10;4.88;;;3.03;;
42124;SDS011;27787;44.594;11.046;2023-07-31T01:53:55;4.05;;;2.38;;
42124;SDS011;27787;44.594;11.046;2023-07-31T01:56:39;7.47;;;3.00;;
42124;SDS011;27787;44.594;11.046;2023-07-31T01:59:24;5.10;;;2.75;;
42124;SDS011;27787;44.594;11.046;2023-07-31T02:02:08;6.30;;;2.47;;
42124;SDS011;27787;44.594;11.046;2023-07-31T02:04:52;6.15;;;2.63;;
42124;SDS011;27787;44.594;11.046;2023-07-31T02:07:36;4.57;;;2.63;;
42124;SDS011;27787;44.594;11.046;2023-07-31T02:10:21;5.50;;;2.78;;
42124;SDS011;27787;44.594;11.046;2023-07-31T02:13:05;4.10;;;2.17;;
42124;SDS011;27787;44.594;11.046;2023-07-31T02:15:50;9.82;;;2.67;;
42124;SDS011;27787;44.594;11.046;2023-07-31T02:18:34;5.18;;;2.78;;
42124;SDS011;27787;44.594;11.046;2023-07-31T02:21:19;7.75;;;2.58;;
42124;SDS011;27787;44.594;11.046;2023-07-31T02:24:04;4.50;;;2.95;;
42124;SDS011;27787;44.594;11.046;2023-07-31T02:26:48;6.95;;;3.05;;
42124;SDS011;27787;44.594;11.046;2023-07-31T02:29:33;7.10;;;2.78;;
42124;SDS011;27787;44.594;11.046;2023-07-31T02:32:17;6.30;;;2.97;;
42124;SDS011;27787;44.594;11.046;2023-07-31T02:35:01;6.70;;;3.00;;
42124;SDS011;27787;44.594;11.046;2023-07-31T02:37:45;10.90;;;3.58;;
42124;SDS011;27787;44.594;11.046;2023-07-31T02:40:29;6.68;;;3.55;;
42124;SDS011;27787;44.594;11.046;2023-07-31T02:43:13;6.07;;;2.95;;
42124;SDS011;27787;44.594;11.046;2023-07-31T02:45:59;4.63;;;3.00;;
42124;SDS011;27787;44.594;11.046;2023-07-31T02:48:44;6.15;;;3.30;;
42124;SDS011;27787;44.594;11.046;2023-07-31T02:51:29;5.22;;;2.92;;
42124;SDS011;27787;44.594;11.046;2023-07-31T02:54:13;11.77;;;3.00;;
42124;SDS011;27787;44.594;11.046;2023-07-31T02:56:57;6.38;;;3.22;;
42124;SDS011;27787;44.594;11.046;2023-07-31T02:59:41;6.25;;;3.15;;
42124;SDS011;27787;44.594;11.046;2023-07-31T03:02:25;7.00;;;3.30;;
42124;SDS011;27787;44.594;11.046;2023-07-31T03:05:09;6.72;;;3.58;;
42124;SDS011;27787;44.594;11.046;2023-07-31T03:07:54;5.18;;;3.67;;
42124;SDS011;27787;44.594;11.046;2023-07-31T03:10:37;7.78;;;4.32;;
42124;SDS011;27787;44.594;11.046;2023-07-31T03:13:22;5.60;;;3.90;;
42124;SDS011;27787;44.594;11.046;2023-07-31T03:16:06;8.52;;;4.22;;
42124;SDS011;27787;44.594;11.046;2023-07-31T03:18:50;9.38;;;4.85;;
42124;SDS011;27787;44.594;11.046;2023-07-31T03:21:34;9.00;;;4.85;;
42124;SDS011;27787;44.594;11.046;2023-07-31T03:24:18;9.52;;;6.68;;
42124;SDS011;27787;44.594;11.046;2023-07-31T03:27:03;10.98;;;6.30;;
42124;SDS011;27787;44.594;11.046;2023-07-31T03:29:47;7.60;;;5.28;;
42124;SDS011;27787;44.594;11.046;2023-07-31T03:32:34;7.40;;;5.15;;
42124;SDS011;27787;44.594;11.046;2023-07-31T03:35:18;8.27;;;5.68;;
42124;SDS011;27787;44.594;11.046;2023-07-31T03:38:02;12.85;;;5.95;;
42124;SDS011;27787;44.594;11.046;2023-07-31T03:43:32;11.00;;;5.85;;
42124;SDS011;27787;44.594;11.046;2023-07-31T03:46:17;9.15;;;5.90;;
42124;SDS011;27787;44.594;11.046;2023-07-31T03:49:01;10.30;;;6.20;;
42124;SDS011;27787;44.594;11.046;2023-07-31T03:51:45;11.20;;;6.70;;
42124;SDS011;27787;44.594;11.046;2023-07-31T03:54:30;8.60;;;6.50;;
42124;SDS011;27787;44.594;11.046;2023-07-31T03:57:14;9.85;;;6.82;;
42124;SDS011;27787;44.594;11.046;2023-07-31T03:59:58;10.45;;;6.80;;
42124;SDS011;27787;44.594;11.046;2023-07-31T04:02:43;9.38;;;5.78;;
42124;SDS011;27787;44.594;11.046;2023-07-31T04:05:27;8.60;;;6.50;;
42124;SDS011;27787;44.594;11.046;2023-07-31T04:08:10;8.85;;;5.90;;
42124;SDS011;27787;44.594;11.046;2023-07-31T04:10:55;6.63;;;4.75;;
42124;SDS011;27787;44.594;11.046;2023-07-31T04:13:38;8.65;;;5.07;;
42124;SDS011;27787;44.594;11.046;2023-07-31T04:16:23;6.80;;;5.15;;
42124;SDS011;27787;44.594;11.046;2023-07-31T04:19:07;12.38;;;5.40;;
42124;SDS011;27787;44.594;11.046;2023-07-31T04:21:52;7.22;;;4.60;;
42124;SDS011;27787;44.594;11.046;2023-07-31T04:24:36;7.00;;;4.75;;
42124;SDS011;27787;44.594;11.046;2023-07-31T04:27:20;7.65;;;4.45;;
42124;SDS011;27787;44.594;11.046;2023-07-31T04:30:05;7.57;;;4.80;;
42124;SDS011;27787;44.594;11.046;2023-07-31T04:32:49;7.80;;;4.88;;
42124;SDS011;27787;44.594;11.046;2023-07-31T04:35:34;12.32;;;5.30;;
42124;SDS011;27787;44.594;11.046;2023-07-31T04:38:21;9.50;;;5.13;;
42124;SDS011;27787;44.594;11.046;2023-07-31T04:41:06;8.95;;;5.30;;
42124;SDS011;27787;44.594;11.046;2023-07-31T04:43:50;6.30;;;4.78;;
42124;SDS011;27787;44.594;11.046;2023-07-31T04:46:34;6.63;;;4.45;;
42124;SDS011;27787;44.594;11.046;2023-07-31T04:49:19;9.07;;;4.37;;
42124;SDS011;27787;44.594;11.046;2023-07-31T04:52:03;6.38;;;4.25;;
42124;SDS011;27787;44.594;11.046;2023-07-31T04:54:47;7.63;;;3.75;;
42124;SDS011;27787;44.594;11.046;2023-07-31T04:57:32;5.35;;;3.63;;
42124;SDS011;27787;44.594;11.046;2023-07-31T05:00:16;7.47;;;3.05;;
42124;SDS011;27787;44.594;11.046;2023-07-31T05:03:01;5.95;;;3.15;;
42124;SDS011;27787;44.594;11.046;2023-07-31T05:05:45;4.18;;;2.92;;
42124;SDS011;27787;44.594;11.046;2023-07-31T05:08:29;9.07;;;2.75;;
42124;SDS011;27787;44.594;11.046;2023-07-31T05:11:13;5.22;;;2.75;;
42124;SDS011;27787;44.594;11.046;2023-07-31T05:13:57;6.38;;;3.10;;
42124;SDS011;27787;44.594;11.046;2023-07-31T05:16:41;5.78;;;2.67;;
42124;SDS011;27787;44.594;11.046;2023-07-31T05:19:25;8.32;;;2.70;;
42124;SDS011;27787;44.594;11.046;2023-07-31T05:22:09;6.07;;;3.03;;
42124;SDS011;27787;44.594;11.046;2023-07-31T05:24:53;7.65;;;2.50;;
42124;SDS011;27787;44.594;11.046;2023-07-31T05:27:38;6.30;;;2.80;;
42124;SDS011;27787;44.594;11.046;2023-07-31T05:30:22;3.67;;;2.92;;
42124;SDS011;27787;44.594;11.046;2023-07-31T05:33:06;6.68;;;2.78;;
42124;SDS011;27787;44.594;11.046;2023-07-31T05:35:50;7.18;;;2.80;;
42124;SDS011;27787;44.594;11.046;2023-07-31T05:38:34;4.70;;;2.90;;
42124;SDS011;27787;44.594;11.046;2023-07-31T05:41:18;6.53;;;3.03;;
42124;SDS011;27787;44.594;11.046;2023-07-31T05:44:03;10.00;;;3.30;;
42124;SDS011;27787;44.594;11.046;2023-07-31T05:46:47;9.90;;;3.35;;
42124;SDS011;27787;44.594;11.046;2023-07-31T05:49:31;7.93;;;3.42;;
42124;SDS011;27787;44.594;11.046;2023-07-31T05:52:15;9.85;;;3.55;;
42124;SDS011;27787;44.594;11.046;2023-07-31T05:55:00;7.50;;;3.70;;
42124;SDS011;27787;44.594;11.046;2023-07-31T05:57:45;6.05;;;3.97;;
42124;SDS011;27787;44.594;11.046;2023-07-31T06:00:29;9.27;;;3.42;;
42124;SDS011;27787;44.594;11.046;2023-07-31T06:03:13;8.90;;;3.50;;
42124;SDS011;27787;44.594;11.046;2023-07-31T06:05:57;6.38;;;3.67;;
42124;SDS011;27787;44.594;11.046;2023-07-31T06:08:41;7.57;;;3.63;;
42124;SDS011;27787;44.594;11.046;2023-07-31T06:11:25;7.20;;;3.60;;
42124;SDS011;27787;44.594;11.046;2023-07-31T06:14:10;16.45;;;5.05;;
42124;SDS011;27787;44.594;11.046;2023-07-31T06:16:54;6.13;;;4.00;;
42124;SDS011;27787;44.594;11.046;2023-07-31T06:19:37;9.88;;;4.20;;
42124;SDS011;27787;44.594;11.046;2023-07-31T06:22:22;8.88;;;4.00;;
42124;SDS011;27787;44.594;11.046;2023-07-31T06:25:06;6.68;;;3.90;;
42124;SDS011;27787;44.594;11.046;2023-07-31T06:27:50;7.85;;;3.70;;
42124;SDS011;27787;44.594;11.046;2023-07-31T06:30:35;9.38;;;4.40;;
42124;SDS011;27787;44.594;11.046;2023-07-31T06:33:19;7.53;;;3.85;;
42124;SDS011;27787;44.594;11.046;2023-07-31T06:36:03;8.23;;;3.83;;
42124;SDS011;27787;44.594;11.046;2023-07-31T06:38:47;6.75;;;4.05;;
42124;SDS011;27787;44.594;11.046;2023-07-31T06:41:31;11.90;;;3.75;;
42124;SDS011;27787;44.594;11.046;2023-07-31T06:44:15;12.23;;;3.80;;
42124;SDS011;27787;44.594;11.046;2023-07-31T06:46:59;5.97;;;4.00;;
42124;SDS011;27787;44.594;11.046;2023-07-31T06:49:43;8.73;;;4.63;;
42124;SDS011;27787;44.594;11.046;2023-07-31T06:52:28;6.45;;;4.10;;
42124;SDS011;27787;44.594;11.046;2023-07-31T06:55:16;7.45;;;4.80;;
42124;SDS011;27787;44.594;11.046;2023-07-31T06:58:05;7.32;;;4.70;;
42124;SDS011;27787;44.594;11.046;2023-07-31T07:00:49;8.35;;;4.85;;
42124;SDS011;27787;44.594;11.046;2023-07-31T07:06:18;7.00;;;4.78;;
42124;SDS011;27787;44.594;11.046;2023-07-31T07:09:03;9.57;;;4.70;;
42124;SDS011;27787;44.594;11.046;2023-07-31T07:11:47;8.43;;;4.38;;
42124;SDS011;27787;44.594;11.046;2023-07-31T07:14:31;11.98;;;4.20;;
42124;SDS011;27787;44.594;11.046;2023-07-31T07:17:15;12.63;;;4.45;;
42124;SDS011;27787;44.594;11.046;2023-07-31T07:20:00;7.10;;;4.03;;
42124;SDS011;27787;44.594;11.046;2023-07-31T07:22:45;8.38;;;4.80;;
42124;SDS011;27787;44.594;11.046;2023-07-31T07:25:29;9.43;;;3.97;;
42124;SDS011;27787;44.594;11.046;2023-07-31T07:28:14;7.72;;;4.13;;
42124;SDS011;27787;44.594;11.046;2023-07-31T07:30:58;7.80;;;3.45;;
42124;SDS011;27787;44.594;11.046;2023-07-31T07:33:43;6.25;;;3.67;;
42124;SDS011;27787;44.594;11.046;2023-07-31T07:36:28;5.77;;;3.53;;
42124;SDS011;27787;44.594;11.046;2023-07-31T07:39:12;6.43;;;3.55;;
42124;SDS011;27787;44.594;11.046;2023-07-31T07:41:56;5.50;;;3.45;;
42124;SDS011;27787;44.594;11.046;2023-07-31T07:44:40;6.32;;;3.10;;
42124;SDS011;27787;44.594;11.046;2023-07-31T07:47:24;12.52;;;3.55;;
42124;SDS011;27787;44.594;11.046;2023-07-31T07:50:09;4.65;;;2.97;;
42124;SDS011;27787;44.594;11.046;2023-07-31T07:52:53;5.72;;;3.20;;
42124;SDS011;27787;44.594;11.046;2023-07-31T07:55:37;6.72;;;2.70;;
42124;SDS011;27787;44.594;11.046;2023-07-31T07:58:21;5.93;;;2.70;;
42124;SDS011;27787;44.594;11.046;2023-07-31T08:01:06;4.93;;;2.38;;
42124;SDS011;27787;44.594;11.046;2023-07-31T08:03:50;5.25;;;3.00;;
42124;SDS011;27787;44.594;11.046;2023-07-31T08:06:34;7.57;;;3.25;;
42124;SDS011;27787;44.594;11.046;2023-07-31T08:09:18;3.35;;;2.10;;
42124;SDS011;27787;44.594;11.046;2023-07-31T08:12:02;4.43;;;2.30;;
42124;SDS011;27787;44.594;11.046;2023-07-31T08:14:47;4.30;;;2.40;;
42124;SDS011;27787;44.594;11.046;2023-07-31T08:17:32;4.70;;;2.20;;
42124;SDS011;27787;44.594;11.046;2023-07-31T08:20:15;4.82;;;2.20;;
42124;SDS011;27787;44.594;11.046;2023-07-31T08:23:00;2.60;;;1.83;;
42124;SDS011;27787;44.594;11.046;2023-07-31T08:25:44;3.75;;;2.30;;
42124;SDS011;27787;44.594;11.046;2023-07-31T08:28:28;2.78;;;1.92;;
42124;SDS011;27787;44.594;11.046;2023-07-31T08:31:12;3.85;;;2.33;;
42124;SDS011;27787;44.594;11.046;2023-07-31T08:33:57;4.13;;;2.00;;
42124;SDS011;27787;44.594;11.046;2023-07-31T08:36:41;3.53;;;2.28;;
42124;SDS011;27787;44.594;11.046;2023-07-31T08:39:25;4.95;;;2.00;;
42124;SDS011;27787;44.594;11.046;2023-07-31T08:42:09;2.78;;;1.98;;
42124;SDS011;27787;44.594;11.046;2023-07-31T08:44:54;4.30;;;2.13;;
42124;SDS011;27787;44.594;11.046;2023-07-31T08:47:40;4.07;;;2.22;;
42124;SDS011;27787;44.594;11.046;2023-07-31T08:50:26;3.28;;;1.90;;
42124;SDS011;27787;44.594;11.046;2023-07-31T08:53:11;9.60;;;2.28;;
42124;SDS011;27787;44.594;11.046;2023-07-31T08:55:56;2.83;;;1.90;;
42124;SDS011;27787;44.594;11.046;2023-07-31T08:58:42;2.40;;;1.73;;
42124;SDS011;27787;44.594;11.046;2023-07-31T09:01:28;3.47;;;1.73;;
42124;SDS011;27787;44.594;11.046;2023-07-31T09:04:13;2.65;;;1.83;;
42124;SDS011;27787;44.594;11.046;2023-07-31T09:07:01;4.30;;;2.10;;
42124;SDS011;27787;44.594;11.046;2023-07-31T09:09:48;3.72;;;2.10;;
42124;SDS011;27787;44.594;11.046;2023-07-31T09:12:32;3.65;;;2.30;;
42124;SDS011;27787;44.594;11.046;2023-07-31T09:15:17;4.90;;;2.58;;
42124;SDS011;27787;44.594;11.046;2023-07-31T09:20:46;4.15;;;2.15;;
42124;SDS011;27787;44.594;11.046;2023-07-31T09:23:46;5.05;;;2.40;;
42124;SDS011;27787;44.594;11.046;2023-07-31T09:26:35;2.72;;;1.77;;
42124;SDS011;27787;44.594;11.046;2023-07-31T09:29:20;2.33;;;1.80;;
42124;SDS011;27787;44.594;11.046;2023-07-31T09:32:05;3.05;;;1.95;;
42124;SDS011;27787;44.594;11.046;2023-07-31T09:35:00;2.92;;;1.83;;
42124;SDS011;27787;44.594;11.046;2023-07-31T09:37:48;2.92;;;2.10;;
42124;SDS011;27787;44.594;11.046;2023-07-31T09:40:34;2.72;;;1.83;;
42124;SDS011;27787;44.594;11.046;2023-07-31T09:43:20;4.70;;;2.30;;
42124;SDS011;27787;44.594;11.046;2023-07-31T09:46:05;6.30;;;2.40;;
42124;SDS011;27787;44.594;11.046;2023-07-31T09:49:04;2.78;;;2.10;;
42124;SDS011;27787;44.594;11.046;2023-07-31T09:51:55;4.93;;;2.45;;
42124;SDS011;27787;44.594;11.046;2023-07-31T09:54:38;4.40;;;2.50;;
42124;SDS011;27787;44.594;11.046;2023-07-31T09:57:22;4.45;;;2.25;;
42124;SDS011;27787;44.594;11.046;2023-07-31T10:00:09;2.75;;;2.10;;
42124;SDS011;27787;44.594;11.046;2023-07-31T10:02:59;4.10;;;2.72;;
42124;SDS011;27787;44.594;11.046;2023-07-31T10:05:52;5.07;;;2.63;;
42124;SDS011;27787;44.594;11.046;2023-07-31T10:08:39;5.80;;;3.07;;
42124;SDS011;27787;44.594;11.046;2023-07-31T10:11:24;3.55;;;2.38;;
42124;SDS011;27787;44.594;11.046;2023-07-31T10:14:11;3.55;;;2.35;;
42124;SDS011;27787;44.594;11.046;2023-07-31T10:16:57;4.82;;;2.65;;
42124;SDS011;27787;44.594;11.046;2023-07-31T10:19:42;4.93;;;2.20;;
42124;SDS011;27787;44.594;11.046;2023-07-31T10:22:27;3.88;;;2.72;;
42124;SDS011;27787;44.594;11.046;2023-07-31T10:25:14;4.72;;;2.60;;
42124;SDS011;27787;44.594;11.046;2023-07-31T10:27:59;5.53;;;2.13;;
42124;SDS011;27787;44.594;11.046;2023-07-31T10:30:43;2.80;;;2.05;;
42124;SDS011;27787;44.594;11.046;2023-07-31T10:33:28;4.95;;;2.75;;
42124;SDS011;27787;44.594;11.046;2023-07-31T10:36:19;7.43;;;2.63;;
42124;SDS011;27787;44.594;11.046;2023-07-31T10:39:04;5.07;;;2.60;;
42124;SDS011;27787;44.594;11.046;2023-07-31T10:42:12;4.13;;;2.40;;
42124;SDS011;27787;44.594;11.046;2023-07-31T10:45:01;4.28;;;2.50;;
42124;SDS011;27787;44.594;11.046;2023-07-31T10:47:50;3.95;;;2.72;;
42124;SDS011;27787;44.594;11.046;2023-07-31T10:53:40;3.13;;;2.17;;
42124;SDS011;27787;44.594;11.046;2023-07-31T10:59:09;2.97;;;2.40;;
42124;SDS011;27787;44.594;11.046;2023-07-31T11:01:56;3.70;;;2.38;;
42124;SDS011;27787;44.594;11.046;2023-07-31T11:07:25;3.47;;;2.10;;
42124;SDS011;27787;44.594;11.046;2023-07-31T11:10:09;2.95;;;2.30;;
42124;SDS011;27787;44.594;11.046;2023-07-31T11:12:53;4.45;;;2.58;;
42124;SDS011;27787;44.594;11.046;2023-07-31T11:15:37;6.00;;;2.38;;
42124;SDS011;27787;44.594;11.046;2023-07-31T11:18:22;3.58;;;2.20;;
42124;SDS011;27787;44.594;11.046;2023-07-31T11:21:07;3.08;;;2.10;;
42124;SDS011;27787;44.594;11.046;2023-07-31T11:23:52;2.85;;;2.33;;
42124;SDS011;27787;44.594;11.046;2023-07-31T11:26:37;3.20;;;2.00;;
42124;SDS011;27787;44.594;11.046;2023-07-31T11:29:22;5.13;;;1.88;;
42124;SDS011;27787;44.594;11.046;2023-07-31T11:32:15;3.47;;;2.30;;
42124;SDS011;27787;44.594;11.046;2023-07-31T11:35:00;2.70;;;1.98;;
42124;SDS011;27787;44.594;11.046;2023-07-31T11:37:44;5.95;;;2.28;;
42124;SDS011;27787;44.594;11.046;2023-07-31T11:40:29;3.70;;;2.20;;
42124;SDS011;27787;44.594;11.046;2023-07-31T11:43:13;5.82;;;2.10;;
42124;SDS011;27787;44.594;11.046;2023-07-31T11:46:01;3.75;;;2.35;;
42124;SDS011;27787;44.594;11.046;2023-07-31T11:48:46;3.47;;;2.15;;
42124;SDS011;27787;44.594;11.046;2023-07-31T11:51:32;5.18;;;2.30;;
42124;SDS011;27787;44.594;11.046;2023-07-31T11:54:16;3.92;;;2.10;;
42124;SDS011;27787;44.594;11.046;2023-07-31T11:59:45;2.50;;;1.80;;
42124;SDS011;27787;44.594;11.046;2023-07-31T12:02:30;2.85;;;2.13;;
42124;SDS011;27787;44.594;11.046;2023-07-31T12:05:14;4.68;;;2.40;;
42124;SDS011;27787;44.594;11.046;2023-07-31T12:07:59;5.13;;;2.10;;
42124;SDS011;27787;44.594;11.046;2023-07-31T12:10:43;3.38;;;2.33;;
42124;SDS011;27787;44.594;11.046;2023-07-31T12:13:29;7.68;;;2.10;;
42124;SDS011;27787;44.594;11.046;2023-07-31T12:16:15;4.93;;;2.15;;
42124;SDS011;27787;44.594;11.046;2023-07-31T12:18:59;3.45;;;2.20;;
42124;SDS011;27787;44.594;11.046;2023-07-31T12:21:44;3.22;;;2.00;;
42124;SDS011;27787;44.594;11.046;2023-07-31T12:24:28;10.95;;;2.92;;
42124;SDS011;27787;44.594;11.046;2023-07-31T12:27:13;2.42;;;2.05;;
42124;SDS011;27787;44.594;11.046;2023-07-31T12:29:58;3.05;;;2.20;;
42124;SDS011;27787;44.594;11.046;2023-07-31T12:32:42;4.57;;;2.28;;
42124;SDS011;27787;44.594;11.046;2023-07-31T12:35:34;4.15;;;2.17;;
42124;SDS011;27787;44.594;11.046;2023-07-31T12:38:18;3.60;;;2.30;;
42124;SDS011;27787;44.594;11.046;2023-07-31T12:41:04;3.75;;;2.50;;
42124;SDS011;27787;44.594;11.046;2023-07-31T12:43:50;3.55;;;2.47;;
42124;SDS011;27787;44.594;11.046;2023-07-31T12:46:34;7.75;;;2.60;;
42124;SDS011;27787;44.594;11.046;2023-07-31T12:49:18;4.00;;;2.60;;
42124;SDS011;27787;44.594;11.046;2023-07-31T12:52:02;3.80;;;2.55;;
42124;SDS011;27787;44.594;11.046;2023-07-31T12:54:47;3.58;;;2.20;;
42124;SDS011;27787;44.594;11.046;2023-07-31T12:57:31;3.67;;;2.35;;
42124;SDS011;27787;44.594;11.046;2023-07-31T13:00:15;5.37;;;3.03;;
42124;SDS011;27787;44.594;11.046;2023-07-31T13:02:59;3.53;;;2.35;;
42124;SDS011;27787;44.594;11.046;2023-07-31T13:05:44;3.63;;;2.30;;
42124;SDS011;27787;44.594;11.046;2023-07-31T13:08:29;3.83;;;2.30;;
42124;SDS011;27787;44.594;11.046;2023-07-31T13:11:13;3.95;;;2.40;;
42124;SDS011;27787;44.594;11.046;2023-07-31T13:13:57;6.47;;;2.27;;
42124;SDS011;27787;44.594;11.046;2023-07-31T13:16:42;3.55;;;2.63;;
42124;SDS011;27787;44.594;11.046;2023-07-31T13:19:26;3.25;;;2.28;;
42124;SDS011;27787;44.594;11.046;2023-07-31T13:22:11;7.57;;;2.85;;
42124;SDS011;27787;44.594;11.046;2023-07-31T13:24:55;2.67;;;2.17;;
42124;SDS011;27787;44.594;11.046;2023-07-31T13:27:39;7.10;;;2.60;;
42124;SDS011;27787;44.594;11.046;2023-07-31T13:30:23;3.00;;;2.20;;
42124;SDS011;27787;44.594;11.046;2023-07-31T13:33:08;5.00;;;2.30;;
42124;SDS011;27787;44.594;11.046;2023-07-31T13:35:52;4.35;;;2.55;;
42124;SDS011;27787;44.594;11.046;2023-07-31T13:38:36;3.72;;;2.35;;
42124;SDS011;27787;44.594;11.046;2023-07-31T13:41:21;3.08;;;2.30;;
42124;SDS011;27787;44.594;11.046;2023-07-31T13:44:05;2.53;;;2.00;;
42124;SDS011;27787;44.594;11.046;2023-07-31T13:46:48;3.38;;;2.13;;
42124;SDS011;27787;44.594;11.046;2023-07-31T13:49:32;4.87;;;2.30;;
42124;SDS011;27787;44.594;11.046;2023-07-31T13:55:01;3.22;;;2.30;;
42124;SDS011;27787;44.594;11.046;2023-07-31T13:57:46;3.70;;;2.40;;
42124;SDS011;27787;44.594;11.046;2023-07-31T14:00:31;3.05;;;2.03;;
42124;SDS011;27787;44.594;11.046;2023-07-31T14:03:16;3.75;;;2.40;;
42124;SDS011;27787;44.594;11.046;2023-07-31T14:05:59;6.00;;;2.53;;
42124;SDS011;27787;44.594;11.046;2023-07-31T14:08:44;4.55;;;2.35;;
42124;SDS011;27787;44.594;11.046;2023-07-31T14:11:28;4.60;;;2.53;;
42124;SDS011;27787;44.594;11.046;2023-07-31T14:14:12;3.95;;;2.38;;
42124;SDS011;27787;44.594;11.046;2023-07-31T14:16:57;7.50;;;2.40;;
42124;SDS011;27787;44.594;11.046;2023-07-31T14:19:41;2.87;;;2.17;;
42124;SDS011;27787;44.594;11.046;2023-07-31T14:22:29;5.33;;;2.50;;
42124;SDS011;27787;44.594;11.046;2023-07-31T14:25:13;3.00;;;2.40;;
42124;SDS011;27787;44.594;11.046;2023-07-31T14:27:58;4.85;;;2.72;;
42124;SDS011;27787;44.594;11.046;2023-07-31T14:30:42;4.50;;;2.22;;
42124;SDS011;27787;44.594;11.046;2023-07-31T14:33:27;3.88;;;2.28;;
42124;SDS011;27787;44.594;11.046;2023-07-31T14:36:11;3.03;;;2.40;;
42124;SDS011;27787;44.594;11.046;2023-07-31T14:38:55;3.97;;;2.83;;
42124;SDS011;27787;44.594;11.046;2023-07-31T14:41:39;3.47;;;2.20;;
42124;SDS011;27787;44.594;11.046;2023-07-31T14:44:23;4.03;;;2.28;;
42124;SDS011;27787;44.594;11.046;2023-07-31T14:47:07;5.20;;;2.20;;
42124;SDS011;27787;44.594;11.046;2023-07-31T14:49:51;3.85;;;2.30;;
42124;SDS011;27787;44.594;11.046;2023-07-31T14:52:35;2.80;;;2.10;;
42124;SDS011;27787;44.594;11.046;2023-07-31T14:55:19;3.30;;;2.20;;
42124;SDS011;27787;44.594;11.046;2023-07-31T14:58:03;4.78;;;2.78;;
42124;SDS011;27787;44.594;11.046;2023-07-31T15:00:47;2.88;;;2.00;;
42124;SDS011;27787;44.594;11.046;2023-07-31T15:03:31;4.60;;;2.10;;
42124;SDS011;27787;44.594;11.046;2023-07-31T15:06:15;4.72;;;2.47;;
42124;SDS011;27787;44.594;11.046;2023-07-31T15:08:59;3.70;;;2.67;;
42124;SDS011;27787;44.594;11.046;2023-07-31T15:11:43;5.07;;;2.10;;
42124;SDS011;27787;44.594;11.046;2023-07-31T15:14:27;3.13;;;2.30;;
42124;SDS011;27787;44.594;11.046;2023-07-31T15:17:13;2.83;;;1.77;;
42124;SDS011;27787;44.594;11.046;2023-07-31T15:19:56;3.60;;;2.58;;
42124;SDS011;27787;44.594;11.046;2023-07-31T15:22:40;2.88;;;2.00;;
42124;SDS011;27787;44.594;11.046;2023-07-31T15:25:25;2.50;;;2.10;;
42124;SDS011;27787;44.594;11.046;2023-07-31T15:28:10;3.58;;;2.33;;
42124;SDS011;27787;44.594;11.046;2023-07-31T15:30:53;3.57;;;2.13;;
42124;SDS011;27787;44.594;11.046;2023-07-31T15:33:37;4.18;;;2.20;;
42124;SDS011;27787;44.594;11.046;2023-07-31T15:36:21;3.42;;;2.10;;
42124;SDS011;27787;44.594;11.046;2023-07-31T15:39:06;3.92;;;2.08;;
42124;SDS011;27787;44.594;11.046;2023-07-31T15:41:52;3.53;;;2.40;;
42124;SDS011;27787;44.594;11.046;2023-07-31T15:44:36;5.32;;;2.65;;
42124;SDS011;27787;44.594;11.046;2023-07-31T15:47:20;2.63;;;2.15;;
42124;SDS011;27787;44.594;11.046;2023-07-31T15:50:04;3.50;;;2.40;;
42124;SDS011;27787;44.594;11.046;2023-07-31T15:52:49;4.90;;;2.08;;
42124;SDS011;27787;44.594;11.046;2023-07-31T15:55:33;4.63;;;2.08;;
42124;SDS011;27787;44.594;11.046;2023-07-31T15:58:17;3.88;;;2.50;;
42124;SDS011;27787;44.594;11.046;2023-07-31T16:01:01;3.00;;;2.30;;
42124;SDS011;27787;44.594;11.046;2023-07-31T16:03:46;4.22;;;2.30;;
42124;SDS011;27787;44.594;11.046;2023-07-31T16:06:31;3.65;;;2.45;;
42124;SDS011;27787;44.594;11.046;2023-07-31T16:09:15;6.82;;;2.42;;
42124;SDS011;27787;44.594;11.046;2023-07-31T16:14:44;4.68;;;2.45;;
42124;SDS011;27787;44.594;11.046;2023-07-31T16:17:28;4.65;;;2.20;;
42124;SDS011;27787;44.594;11.046;2023-07-31T16:22:56;2.95;;;2.20;;
42124;SDS011;27787;44.594;11.046;2023-07-31T16:25:40;3.47;;;2.30;;
42124;SDS011;27787;44.594;11.046;2023-07-31T16:28:24;4.22;;;2.20;;
42124;SDS011;27787;44.594;11.046;2023-07-31T16:31:08;3.95;;;2.60;;
42124;SDS011;27787;44.594;11.046;2023-07-31T16:33:52;2.45;;;2.00;;
42124;SDS011;27787;44.594;11.046;2023-07-31T16:36:37;3.10;;;2.45;;
42124;SDS011;27787;44.594;11.046;2023-07-31T16:39:21;3.15;;;2.42;;
42124;SDS011;27787;44.594;11.046;2023-07-31T16:42:05;2.58;;;2.10;;
42124;SDS011;27787;44.594;11.046;2023-07-31T16:47:33;3.78;;;2.67;;
42124;SDS011;27787;44.594;11.046;2023-07-31T16:50:17;6.18;;;2.40;;
42124;SDS011;27787;44.594;11.046;2023-07-31T16:53:01;3.88;;;2.50;;
42124;SDS011;27787;44.594;11.046;2023-07-31T16:58:30;3.10;;;1.80;;
42124;SDS011;27787;44.594;11.046;2023-07-31T17:01:14;3.60;;;1.55;;
42124;SDS011;27787;44.594;11.046;2023-07-31T17:03:59;6.85;;;2.35;;